createdAt,value
2022-08-24T00:00:36.114Z,5.53
2022-08-24T00:03:03.593Z,5.28
2022-08-24T00:05:30.665Z,5.72
2022-08-24T00:07:57.697Z,5.53
2022-08-24T00:10:26.546Z,6.05
2022-08-24T00:12:53.483Z,6.50
2022-08-24T00:15:24.142Z,5.18
2022-08-24T00:17:54.238Z,6.28
2022-08-24T00:20:24.298Z,6.95
2022-08-24T00:25:21.761Z,6.43
2022-08-24T00:27:51.297Z,6.65
2022-08-24T00:30:22.797Z,6.82
2022-08-24T00:32:54.235Z,6.43
2022-08-24T00:35:24.490Z,6.57
2022-08-24T00:37:53.005Z,7.05
2022-08-24T00:40:33.906Z,7.18
2022-08-24T00:43:04.223Z,7.60
2022-08-24T00:45:35.526Z,7.03
2022-08-24T00:48:05.707Z,6.70
2022-08-24T00:50:37.741Z,7.32
2022-08-24T00:53:16.490Z,7.37
2022-08-24T00:55:47.954Z,7.87
2022-08-24T00:58:20.708Z,7.65
2022-08-24T01:00:53.145Z,7.78
2022-08-24T01:03:20.538Z,8.20
2022-08-24T01:05:47.963Z,7.87
2022-08-24T01:08:14.883Z,7.15
2022-08-24T01:10:46.802Z,6.80
2022-08-24T01:13:14.263Z,7.15
2022-08-24T01:15:45.711Z,7.97
2022-08-24T01:18:35.417Z,7.85
2022-08-24T01:21:22.383Z,7.80
2022-08-24T01:23:54.843Z,7.40
2022-08-24T01:26:28.829Z,8.23
2022-08-24T01:28:58.037Z,7.75
2022-08-24T01:31:26.739Z,8.25
2022-08-24T01:33:55.134Z,8.02
2022-08-24T01:36:32.431Z,8.13
2022-08-24T01:39:10.473Z,8.60
2022-08-24T01:41:38.113Z,7.82
2022-08-24T01:44:05.665Z,8.38
2022-08-24T01:46:33.839Z,7.60
2022-08-24T01:49:02.071Z,8.85
2022-08-24T01:51:30.785Z,7.90
2022-08-24T01:54:02.378Z,8.70
2022-08-24T01:56:33.376Z,8.93
2022-08-24T01:59:00.666Z,9.80
2022-08-24T02:01:31.050Z,8.18
2022-08-24T02:04:00.665Z,8.75
2022-08-24T02:06:27.738Z,9.18
2022-08-24T02:08:54.656Z,9.45
2022-08-24T02:11:22.398Z,9.40
2022-08-24T02:13:49.510Z,9.40
2022-08-24T02:16:17.086Z,10.50
2022-08-24T02:18:45.292Z,9.35
2022-08-24T02:21:13.380Z,10.63
2022-08-24T02:23:41.667Z,9.82
2022-08-24T02:26:10.697Z,10.00
2022-08-24T02:28:39.205Z,10.77
2022-08-24T02:31:08.069Z,10.10
2022-08-24T02:33:35.699Z,10.65
2022-08-24T02:36:03.054Z,12.43
2022-08-24T02:38:34.034Z,10.38
2022-08-24T02:41:01.382Z,10.07
2022-08-24T02:43:30.490Z,9.85
2022-08-24T02:45:57.856Z,10.38
2022-08-24T02:48:25.646Z,9.68
2022-08-24T02:50:53.234Z,11.52
2022-08-24T02:53:22.926Z,9.50
2022-08-24T02:55:50.383Z,10.10
2022-08-24T02:58:18.286Z,10.65
2022-08-24T03:00:46.977Z,10.40
2022-08-24T03:03:14.528Z,10.25
2022-08-24T03:05:41.761Z,9.65
2022-08-24T03:08:08.745Z,10.48
2022-08-24T03:10:36.289Z,10.73
2022-08-24T03:13:04.689Z,10.80
2022-08-24T03:15:31.817Z,11.18
2022-08-24T03:17:58.877Z,10.43
2022-08-24T03:20:26.970Z,11.95
2022-08-24T03:22:54.169Z,11.27
2022-08-24T03:25:26.498Z,12.37
2022-08-24T03:27:54.161Z,11.25
2022-08-24T03:30:22.775Z,11.88
2022-08-24T03:32:53.093Z,11.20
2022-08-24T03:37:51.103Z,12.60
2022-08-24T03:40:22.867Z,12.35
2022-08-24T03:42:53.292Z,12.57
2022-08-24T03:45:21.537Z,12.60
2022-08-24T03:47:49.024Z,12.18
2022-08-24T03:50:16.473Z,12.75
2022-08-24T03:52:43.425Z,13.02
2022-08-24T03:55:11.101Z,13.65
2022-08-24T03:57:38.328Z,14.40
2022-08-24T04:00:08.548Z,13.52
2022-08-24T04:02:41.996Z,14.50
2022-08-24T04:05:10.743Z,14.20
2022-08-24T04:07:37.954Z,13.60
2022-08-24T04:10:05.275Z,14.00
2022-08-24T04:12:32.534Z,13.45
2022-08-24T04:14:59.474Z,14.10
2022-08-24T04:17:26.663Z,13.62
2022-08-24T04:19:59.707Z,15.60
2022-08-24T04:22:31.309Z,13.38
2022-08-24T04:24:58.496Z,13.18
2022-08-24T04:27:27.233Z,13.55
2022-08-24T04:29:54.195Z,12.10
2022-08-24T04:32:22.263Z,12.35
2022-08-24T04:34:50.063Z,12.00
2022-08-24T04:37:17.747Z,12.13
2022-08-24T04:39:51.957Z,11.12
2022-08-24T04:42:20.103Z,11.27
2022-08-24T04:44:47.276Z,11.30
2022-08-24T04:47:14.915Z,14.13
2022-08-24T04:49:42.304Z,12.15
2022-08-24T04:52:10.352Z,11.40
2022-08-24T04:54:40.945Z,12.02
2022-08-24T04:57:08.570Z,10.15
2022-08-24T04:59:36.030Z,11.07
2022-08-24T05:02:03.291Z,10.80
2022-08-24T05:04:31.268Z,10.35
2022-08-24T05:06:58.568Z,11.70
2022-08-24T05:09:25.795Z,9.32
2022-08-24T05:11:53.665Z,10.07
2022-08-24T05:14:22.890Z,8.95
2022-08-24T05:16:53.919Z,8.48
2022-08-24T05:19:23.048Z,8.68
2022-08-24T05:21:50.058Z,7.70
2022-08-24T05:24:18.416Z,8.43
2022-08-24T05:26:46.051Z,7.65
2022-08-24T05:29:13.015Z,7.55
2022-08-24T05:31:44.788Z,8.23
2022-08-24T05:34:12.645Z,7.30
2022-08-24T05:36:40.975Z,7.05
2022-08-24T05:39:11.730Z,7.78
2022-08-24T05:41:44.398Z,7.03
2022-08-24T05:44:14.308Z,6.70
2022-08-24T05:46:43.261Z,7.43
2022-08-24T05:49:10.880Z,6.20
2022-08-24T05:51:38.702Z,6.30
2022-08-24T05:54:06.466Z,6.22
2022-08-24T05:56:33.965Z,6.47
2022-08-24T05:59:02.196Z,5.35
2022-08-24T06:01:29.198Z,6.62
2022-08-24T06:03:57.398Z,4.85
2022-08-24T06:06:24.925Z,5.03
2022-08-24T06:08:56.320Z,4.95
2022-08-24T06:11:30.235Z,4.85
2022-08-24T06:14:00.562Z,5.35
2022-08-24T06:16:29.401Z,4.68
2022-08-24T06:18:56.889Z,4.93
2022-08-24T06:21:28.392Z,4.35
2022-08-24T06:23:57.025Z,4.40
2022-08-24T06:26:42.313Z,4.20
2022-08-24T06:29:10.679Z,4.60
2022-08-24T06:31:42.317Z,4.20
2022-08-24T06:34:12.505Z,4.82
2022-08-24T06:36:40.172Z,4.57
2022-08-24T06:39:09.908Z,4.20
2022-08-24T06:41:39.126Z,4.18
2022-08-24T06:44:08.890Z,4.50
2022-08-24T06:46:43.361Z,4.20
2022-08-24T06:49:10.306Z,4.62
2022-08-24T06:51:37.233Z,3.90
2022-08-24T06:54:05.498Z,4.50
2022-08-24T06:56:32.694Z,4.18
2022-08-24T06:59:00.570Z,4.55
2022-08-24T07:01:28.454Z,3.67
2022-08-24T07:03:56.150Z,4.20
2022-08-24T07:06:27.279Z,4.10
2022-08-24T07:08:56.535Z,4.20
2022-08-24T07:11:24.214Z,3.83
2022-08-24T07:13:51.330Z,3.97
2022-08-24T07:16:20.137Z,3.85
2022-08-24T07:18:49.899Z,3.40
2022-08-24T07:21:19.859Z,3.90
2022-08-24T07:23:49.519Z,3.92
2022-08-24T07:26:25.634Z,3.75
2022-08-24T07:29:07.723Z,4.85
2022-08-24T07:31:37.689Z,4.12
2022-08-24T07:34:07.766Z,3.90
2022-08-24T07:36:38.045Z,4.40
2022-08-24T07:39:09.532Z,4.30
2022-08-24T07:42:12.346Z,4.30
2022-08-24T07:44:31.021Z,4.35
2022-08-24T07:47:07.081Z,4.22
2022-08-24T07:49:46.094Z,3.75
2022-08-24T07:52:13.325Z,3.53
2022-08-24T07:54:41.036Z,4.07
2022-08-24T07:57:08.750Z,4.12
2022-08-24T07:59:36.369Z,3.97
2022-08-24T08:02:03.824Z,3.72
2022-08-24T08:04:31.870Z,3.83
2022-08-24T08:07:00.892Z,3.78
2022-08-24T08:11:56.134Z,3.62
2022-08-24T08:14:23.082Z,4.35
2022-08-24T08:16:50.895Z,3.60
2022-08-24T08:19:18.237Z,4.00
2022-08-24T08:22:07.713Z,3.80
2022-08-24T08:24:37.535Z,4.03
2022-08-24T08:27:04.487Z,4.10
2022-08-24T08:29:35.057Z,4.62
2022-08-24T08:32:02.633Z,3.75
2022-08-24T08:34:31.329Z,4.28
2022-08-24T08:36:58.962Z,4.00
2022-08-24T08:39:27.369Z,3.72
2022-08-24T08:42:26.606Z,3.75
2022-08-24T08:45:06.447Z,3.95
2022-08-24T08:47:58.955Z,3.83
2022-08-24T08:50:53.347Z,3.60
2022-08-24T08:53:31.223Z,3.90
2022-08-24T08:56:35.454Z,3.42
2022-08-24T08:59:25.858Z,3.37
2022-08-24T09:02:08.981Z,3.67
2022-08-24T09:05:09.805Z,3.25
2022-08-24T09:07:43.523Z,3.35
2022-08-24T09:10:34.887Z,3.62
2022-08-24T09:13:22.210Z,3.08
2022-08-24T09:16:12.222Z,3.50
2022-08-24T09:19:07.064Z,2.92
2022-08-24T09:21:54.780Z,3.10
2022-08-24T09:24:58.892Z,3.50
2022-08-24T09:28:05.046Z,3.10
2022-08-24T09:30:54.159Z,3.40
2022-08-24T09:33:24.668Z,3.45
2022-08-24T09:35:51.783Z,3.85
2022-08-24T09:38:37.776Z,3.58
2022-08-24T09:41:45.874Z,3.95
2022-08-24T09:44:31.549Z,3.22
2022-08-24T09:47:17.794Z,4.00
2022-08-24T09:50:03.748Z,3.60
2022-08-24T09:52:54.566Z,3.33
2022-08-24T09:55:46.637Z,3.65
2022-08-24T09:58:38.759Z,4.72
2022-08-24T10:01:20.245Z,4.75
2022-08-24T10:04:38.006Z,5.37
2022-08-24T10:07:22.720Z,4.70
2022-08-24T10:10:05.245Z,4.93
2022-08-24T10:12:47.105Z,4.35
2022-08-24T10:15:29.425Z,6.10
2022-08-24T10:18:15.246Z,5.60
2022-08-24T10:20:56.877Z,5.40
2022-08-24T10:23:39.146Z,5.95
2022-08-24T10:26:33.406Z,5.80
2022-08-24T10:29:13.611Z,17.98
2022-08-24T10:31:48.659Z,7.57
2022-08-24T10:34:33.277Z,9.35
2022-08-24T10:37:26.461Z,13.10
2022-08-24T10:40:32.157Z,7.78
2022-08-24T10:43:30.929Z,7.53
2022-08-24T10:46:33.122Z,4.35
2022-08-24T10:49:34.568Z,5.10
2022-08-24T10:52:33.657Z,5.18
2022-08-24T10:55:22.420Z,4.97
2022-08-24T10:58:08.079Z,5.07
2022-08-24T11:00:35.551Z,5.32
2022-08-24T11:03:19.822Z,5.00
2022-08-24T11:05:49.964Z,6.37
2022-08-24T11:08:28.132Z,5.15
2022-08-24T11:11:06.881Z,5.05
2022-08-24T11:13:36.536Z,5.80
2022-08-24T11:16:05.576Z,5.50
2022-08-24T11:18:51.107Z,5.03
2022-08-24T11:21:38.373Z,4.85
2022-08-24T11:24:09.339Z,5.03
2022-08-24T11:27:02.080Z,5.40
2022-08-24T11:29:51.143Z,5.65
2022-08-24T11:32:32.115Z,5.15
2022-08-24T11:35:06.131Z,5.40
2022-08-24T11:37:35.606Z,7.97
2022-08-24T11:40:04.871Z,5.90
2022-08-24T11:42:46.997Z,6.22
2022-08-24T11:45:37.459Z,5.95
2022-08-24T11:48:07.670Z,5.72
2022-08-24T11:50:55.129Z,6.05
2022-08-24T11:53:24.617Z,10.00
2022-08-24T11:56:04.230Z,6.55
2022-08-24T11:58:41.443Z,7.60
2022-08-24T12:01:15.885Z,12.15
2022-08-24T12:03:52.884Z,10.63
2022-08-24T12:06:50.545Z,8.07
2022-08-24T12:09:47.801Z,9.25
2022-08-24T12:12:40.865Z,6.40
2022-08-24T12:15:16.571Z,7.28
2022-08-24T12:17:51.633Z,6.72
2022-08-24T12:20:41.795Z,5.97
2022-08-24T12:23:26.547Z,6.12
2022-08-24T12:26:03.086Z,5.53
2022-08-24T12:28:36.416Z,5.18
2022-08-24T12:31:10.638Z,6.30
2022-08-24T12:33:38.178Z,7.25
2022-08-24T12:36:15.215Z,10.82
2022-08-24T12:38:45.808Z,6.45
2022-08-24T12:41:20.620Z,9.27
2022-08-24T12:43:52.325Z,12.63
2022-08-24T12:46:24.185Z,14.00
2022-08-24T12:48:58.295Z,6.10
2022-08-24T12:51:47.989Z,5.90
2022-08-24T12:54:20.087Z,5.45
2022-08-24T12:56:56.520Z,5.85
2022-08-24T12:59:36.766Z,4.78
2022-08-24T13:02:19.031Z,4.90
2022-08-24T13:04:48.884Z,6.97
2022-08-24T13:09:48.503Z,6.00
2022-08-24T13:12:31.105Z,5.97
2022-08-24T13:15:31.219Z,6.43
2022-08-24T13:18:18.249Z,15.02
2022-08-24T13:20:45.046Z,7.28
2022-08-24T13:23:15.821Z,8.23
2022-08-24T13:25:51.298Z,7.95
2022-08-24T13:28:21.633Z,9.25
2022-08-24T13:33:50.177Z,11.73
2022-08-24T13:36:29.201Z,14.52
2022-08-24T13:39:14.868Z,8.93
2022-08-24T13:42:10.802Z,9.38
2022-08-24T13:45:03.146Z,8.68
2022-08-24T13:48:17.701Z,8.13
2022-08-24T13:50:57.970Z,8.85
2022-08-24T13:53:46.868Z,11.82
2022-08-24T13:59:11.864Z,11.32
2022-08-24T14:02:03.720Z,13.65
2022-08-24T14:04:37.794Z,12.65
2022-08-24T14:07:18.335Z,12.63
2022-08-24T14:10:27.586Z,15.48
2022-08-24T14:13:25.864Z,12.60
2022-08-24T14:16:41.184Z,12.35
2022-08-24T14:19:17.200Z,12.25
2022-08-24T14:21:50.694Z,14.15
2022-08-24T14:24:36.455Z,13.43
2022-08-24T14:27:28.889Z,15.55
2022-08-24T14:30:18.214Z,14.85
2022-08-24T14:32:46.714Z,14.10
2022-08-24T14:35:25.327Z,14.18
2022-08-24T14:38:04.443Z,13.98
2022-08-24T14:40:37.879Z,12.70
2022-08-24T14:43:11.126Z,13.48
2022-08-24T14:45:50.637Z,14.52
2022-08-24T14:48:39.633Z,12.98
2022-08-24T14:51:25.376Z,15.07
2022-08-24T14:53:55.143Z,13.73
2022-08-24T14:56:53.690Z,13.73
2022-08-24T14:59:42.511Z,13.38
2022-08-24T15:02:29.898Z,17.40
2022-08-24T15:05:29.514Z,14.48
2022-08-24T15:08:04.335Z,17.90
2022-08-24T15:10:39.549Z,14.05
2022-08-24T15:13:12.412Z,13.23
2022-08-24T15:16:05.544Z,13.88
2022-08-24T15:18:53.164Z,21.67
2022-08-24T15:22:00.829Z,17.42
2022-08-24T15:24:34.041Z,13.65
2022-08-24T15:27:07.551Z,14.48
2022-08-24T15:29:36.035Z,14.45
2022-08-24T15:32:10.147Z,14.00
2022-08-24T15:34:45.426Z,15.57
2022-08-24T15:37:16.173Z,15.63
2022-08-24T15:39:43.247Z,14.15
2022-08-24T15:42:15.271Z,14.38
2022-08-24T15:44:45.289Z,15.38
2022-08-24T15:47:38.786Z,16.33
2022-08-24T15:50:07.573Z,14.70
2022-08-24T15:52:47.166Z,15.00
2022-08-24T15:58:13.549Z,14.73
2022-08-24T16:00:59.628Z,14.13
2022-08-24T16:03:45.346Z,12.95
2022-08-24T16:06:23.246Z,11.82
2022-08-24T16:09:15.103Z,13.23
2022-08-24T16:12:03.563Z,10.75
2022-08-24T16:14:35.336Z,11.77
2022-08-24T16:17:20.118Z,9.93
2022-08-24T16:19:53.136Z,9.40
2022-08-24T16:22:31.260Z,10.15
2022-08-24T16:25:18.920Z,9.13
2022-08-24T16:28:09.984Z,8.90
2022-08-24T16:30:49.882Z,9.55
2022-08-24T16:33:54.806Z,9.20
2022-08-24T16:36:21.989Z,9.73
2022-08-24T16:38:50.783Z,10.00
2022-08-24T16:41:20.195Z,9.95
2022-08-24T16:43:47.783Z,9.07
2022-08-24T16:46:19.694Z,9.85
2022-08-24T16:48:46.672Z,9.57
2022-08-24T16:51:13.846Z,9.90
2022-08-24T16:53:40.796Z,12.88
2022-08-24T16:56:08.861Z,9.48
2022-08-24T16:58:37.371Z,8.90
2022-08-24T17:01:05.278Z,9.15
2022-08-24T17:03:32.277Z,9.50
2022-08-24T17:05:59.678Z,9.95
2022-08-24T17:08:27.592Z,9.00
2022-08-24T17:10:55.342Z,10.18
2022-08-24T17:16:11.495Z,9.98
2022-08-24T17:18:38.977Z,9.52
2022-08-24T17:21:06.151Z,9.10
2022-08-24T17:23:33.844Z,10.18
2022-08-24T17:26:03.299Z,9.18
2022-08-24T17:28:30.265Z,9.93
2022-08-24T17:30:57.169Z,11.10
2022-08-24T17:33:24.370Z,8.80
2022-08-24T17:35:52.401Z,9.57
2022-08-24T17:38:19.324Z,10.10
2022-08-24T17:40:46.806Z,26.08
2022-08-24T17:43:14.259Z,14.43
2022-08-24T17:45:41.611Z,17.08
2022-08-24T17:48:08.833Z,14.20
2022-08-24T17:50:40.439Z,9.52
2022-08-24T17:53:08.924Z,8.43
2022-08-24T17:55:36.258Z,23.05
2022-08-24T17:58:03.427Z,18.62
2022-08-24T18:00:30.356Z,8.32
2022-08-24T18:02:57.513Z,9.88
2022-08-24T18:05:24.475Z,7.97
2022-08-24T18:07:56.071Z,7.97
2022-08-24T18:10:28.464Z,8.77
2022-08-24T18:12:59.383Z,7.43
2022-08-24T18:15:33.597Z,7.43
2022-08-24T18:18:06.192Z,7.43
2022-08-24T18:20:39.067Z,7.90
2022-08-24T18:25:47.005Z,9.80
2022-08-24T18:28:15.290Z,9.80
2022-08-24T18:30:42.625Z,9.20
2022-08-24T18:33:10.864Z,8.65
2022-08-24T18:35:37.810Z,7.20
2022-08-24T18:38:05.031Z,7.12
2022-08-24T18:40:33.445Z,7.60
2022-08-24T18:43:02.234Z,6.90
2022-08-24T18:45:31.212Z,6.15
2022-08-24T18:47:58.624Z,6.68
2022-08-24T18:50:28.743Z,8.30
2022-08-24T18:52:57.681Z,31.65
2022-08-24T18:55:25.029Z,15.60
2022-08-24T18:57:55.146Z,10.43
2022-08-24T19:00:25.488Z,9.55
2022-08-24T19:05:25.706Z,7.22
2022-08-24T19:07:55.381Z,7.12
2022-08-24T19:10:25.999Z,7.10
2022-08-24T19:13:04.448Z,8.32
2022-08-24T19:15:39.182Z,7.45
2022-08-24T19:18:10.924Z,8.02
2022-08-24T19:20:47.430Z,7.85
2022-08-24T19:23:41.511Z,8.00
2022-08-24T19:26:08.770Z,9.30
2022-08-24T19:28:35.689Z,9.90
2022-08-24T19:31:08.800Z,10.90
2022-08-24T19:33:39.354Z,10.30
2022-08-24T19:36:08.118Z,8.05
2022-08-24T19:38:35.297Z,8.35
2022-08-24T19:41:11.736Z,10.45
2022-08-24T19:43:59.941Z,9.65
2022-08-24T19:46:27.558Z,10.32
2022-08-24T19:48:54.786Z,9.60
2022-08-24T19:51:21.728Z,7.55
2022-08-24T19:53:48.674Z,9.80
2022-08-24T19:56:15.846Z,9.65
2022-08-24T19:58:49.694Z,9.65
2022-08-24T20:01:27.963Z,9.07
2022-08-24T20:03:55.347Z,8.35
2022-08-24T20:06:26.010Z,7.40
2022-08-24T20:08:53.409Z,8.18
2022-08-24T20:11:25.138Z,8.15
2022-08-24T20:13:52.925Z,7.55
2022-08-24T20:16:21.315Z,8.50
2022-08-24T20:18:48.599Z,7.53
2022-08-24T20:21:16.078Z,8.32
2022-08-24T20:23:43.826Z,7.37
2022-08-24T20:26:12.198Z,8.82
2022-08-24T20:28:50.387Z,8.13
2022-08-24T20:31:18.772Z,8.98
2022-08-24T20:33:46.142Z,8.27
2022-08-24T20:36:33.854Z,8.48
2022-08-24T20:39:01.664Z,11.70
2022-08-24T20:41:29.063Z,10.13
2022-08-24T20:43:56.624Z,8.68
2022-08-24T20:46:25.537Z,8.95
2022-08-24T20:48:55.684Z,7.78
2022-08-24T20:51:24.441Z,7.57
2022-08-24T20:53:51.550Z,7.37
2022-08-24T20:56:28.783Z,7.75
2022-08-24T20:59:02.824Z,10.07
2022-08-24T21:01:30.926Z,7.85
2022-08-24T21:04:02.728Z,7.97
2022-08-24T21:06:32.160Z,7.70
2022-08-24T21:08:59.051Z,8.88
2022-08-24T21:11:26.098Z,7.85
2022-08-24T21:13:53.260Z,8.52
2022-08-24T21:16:20.230Z,7.90
2022-08-24T21:18:47.183Z,8.80
2022-08-24T21:21:14.512Z,7.70
2022-08-24T21:23:41.392Z,7.75
2022-08-24T21:26:11.138Z,8.38
2022-08-24T21:28:41.178Z,8.48
2022-08-24T21:31:08.751Z,8.45
2022-08-24T21:33:54.008Z,7.97
2022-08-24T21:36:23.306Z,8.75
2022-08-24T21:38:51.923Z,7.82
2022-08-24T21:41:20.597Z,8.35
2022-08-24T21:43:47.765Z,8.85
2022-08-24T21:46:14.862Z,8.25
2022-08-24T21:48:41.878Z,8.20
2022-08-24T21:51:09.896Z,8.18
2022-08-24T21:53:37.147Z,8.13
2022-08-24T21:56:04.247Z,7.97
2022-08-24T21:58:31.531Z,8.35
2022-08-24T22:00:59.378Z,8.07
2022-08-24T22:03:37.521Z,8.45
2022-08-24T22:06:09.106Z,8.38
2022-08-24T22:08:37.826Z,8.75
2022-08-24T22:11:05.189Z,8.02
2022-08-24T22:13:32.442Z,8.30
2022-08-24T22:15:59.690Z,8.95
2022-08-24T22:18:26.627Z,8.65
2022-08-24T22:20:53.547Z,8.75
2022-08-24T22:23:20.762Z,7.50
2022-08-24T22:25:52.423Z,8.70
2022-08-24T22:28:19.974Z,8.55
2022-08-24T22:30:48.806Z,8.32
2022-08-24T22:33:16.060Z,8.07
2022-08-24T22:35:45.139Z,8.10
2022-08-24T22:38:12.918Z,8.00
2022-08-24T22:40:39.937Z,8.02
2022-08-24T22:43:06.882Z,8.35
2022-08-24T22:45:34.191Z,7.65
2022-08-24T22:48:01.167Z,7.95
2022-08-24T22:50:28.097Z,7.82
2022-08-24T22:52:58.318Z,8.65
2022-08-24T22:55:25.533Z,7.37
2022-08-24T22:57:52.442Z,7.95
2022-08-24T23:00:21.486Z,8.60
2022-08-24T23:02:48.380Z,8.38
2022-08-24T23:05:15.304Z,8.68
2022-08-24T23:07:42.493Z,7.65
2022-08-24T23:10:10.204Z,7.82
2022-08-24T23:12:37.161Z,8.43
2022-08-24T23:15:04.552Z,7.43
2022-08-24T23:17:31.484Z,7.78
2022-08-24T23:20:01.492Z,9.30
2022-08-24T23:22:31.813Z,8.00
2022-08-24T23:25:00.131Z,8.45
2022-08-24T23:27:27.543Z,7.32
2022-08-24T23:30:07.210Z,7.70
2022-08-24T23:32:34.138Z,8.85
2022-08-24T23:35:01.088Z,8.27
2022-08-24T23:37:28.322Z,8.15
2022-08-24T23:39:55.309Z,7.50
2022-08-24T23:42:22.249Z,7.28
2022-08-24T23:44:49.518Z,7.80
2022-08-24T23:47:16.554Z,8.15
2022-08-24T23:49:43.484Z,7.70
2022-08-24T23:52:26.223Z,8.48
2022-08-24T23:54:53.892Z,8.27
2022-08-24T23:57:21.087Z,8.20
2022-08-24T23:59:48.494Z,7.30
